Nestor — V2FB3 — position and weather

sailwx.info

Track history (hours):
 
Tides and Currents Weather Stations Pressure Air Temp Water Temp Dewpoint Dewpoint Depression Visibility Wind Speed Wind Dir Waves Ship Positions

Nestor

Last reported at 2014-Jul-25 18:32 UTC. Time now 2014-Jul-25 23:02 UTC.
Position N 41°35' E 010°01'.

Length 88 m; draft 3.3 m.

Type: Ship. MMSI: 305620000.

Date/timePositionNaut miles runAvg speedWind from/ knotsBaromVisibWave heightAir tempDewpointWater temp
2014-Jul-25 18:32N 41°35' E 010°01'1111.0
2014-Jul-25 17:33N 41°39' E 010°15'  
2014-Jul-20 00:31N 40°32' E 005°11'6 6.6
2014-Jul-19 23:33N 40°30' E 005°03'18 8.4
2014-Jul-19 21:21N 40°25' E 004°40'63 8.1
2014-Jul-19 13:29N 40°09' E 003°19'11 7.7
2014-Jul-19 12:05N 40°07' E 003°06'4 8.1
2014-Jul-19 11:33N 40°05' E 003°00'8 8.3
2014-Jul-19 10:33N 40°03' E 002°50'8 7.9
2014-Jul-19 09:33N 40°00' E 002°40'7 6.7
2014-Jul-19 08:33N 39°59' E 002°32'6 6.5
2014-Jul-19 07:33N 39°58' E 002°24'8 8.1
2014-Jul-19 06:33N 39°56' E 002°13'8 8.4
2014-Jul-19 05:34N 39°54' E 002°03'8 7.9
2014-Jul-19 04:33N 39°52' E 001°53'8 7.6
2014-Jul-19 03:32N 39°50' E 001°43'8 7.7
2014-Jul-19 02:33N 39°48' E 001°33'8 7.6
2014-Jul-19 01:33N 39°46' E 001°24'8 7.5
2014-Jul-19 00:30N 39°43' E 001°14'70 8.5
2014-Jul-18 16:13N 39°25' W 000°14'4 5.8
2014-Jul-18 15:31N 39°27' W 000°19'0 0.0
2014-Jul-18 14:31N 39°27' W 000°19'0 0.0
2014-Jul-18 13:31N 39°27' W 000°19'0 0.0
2014-Jul-18 12:31N 39°27' W 000°19'0 0.0
2014-Jul-18 11:31N 39°27' W 000°19'0 0.0
2014-Jul-18 09:31N 39°27' W 000°19'0 0.0
2014-Jul-18 08:25N 39°27' W 000°19'0 0.0
2014-Jul-18 07:31N 39°27' W 000°19'0 0.0
2014-Jul-18 06:31N 39°27' W 000°19'0 0.0
2014-Jul-18 05:28N 39°27' W 000°19'0 0.0
2014-Jul-18 04:31N 39°27' W 000°19'0 0.0
2014-Jul-18 03:31N 39°27' W 000°19'0 0.0
2014-Jul-18 02:31N 39°27' W 000°19'0 0.0
2014-Jul-18 01:31N 39°27' W 000°19'0 0.0
2014-Jul-18 00:31N 39°27' W 000°19'0 0.0
2014-Jul-17 23:31N 39°27' W 000°19'0 0.0
2014-Jul-17 22:31N 39°27' W 000°19'0 0.0
2014-Jul-17 21:31N 39°27' W 000°19'0 0.0
2014-Jul-17 20:31N 39°27' W 000°19'0 0.0
2014-Jul-17 19:31N 39°27' W 000°19'0 0.0
2014-Jul-17 18:31N 39°27' W 000°19'0 0.0
2014-Jul-17 17:31N 39°27' W 000°19'0 0.0
2014-Jul-17 16:31N 39°27' W 000°19'0 0.0
2014-Jul-17 15:31N 39°27' W 000°19'0 0.0
2014-Jul-17 14:31N 39°27' W 000°19'0 0.0
2014-Jul-17 13:31N 39°27' W 000°19'0 0.0
2014-Jul-17 12:31N 39°27' W 000°19'0 0.0
2014-Jul-17 11:31N 39°27' W 000°19'0 0.0
2014-Jul-17 10:28N 39°27' W 000°19'0 0.0
2014-Jul-17 09:33N 39°27' W 000°19'70 8.6
2014-Jul-17 01:27N 39°16' E 001°10'17 8.9
2014-Jul-16 23:33N 39°15' E 001°32'9 9.0
2014-Jul-16 22:33N 39°13' E 001°43'9 8.5
2014-Jul-16 21:33N 39°12' E 001°54'8 7.8
2014-Jul-16 20:33N 39°10' E 002°04'9 9.2
2014-Jul-16 19:33N 39°09' E 002°16'10 9.6
2014-Jul-16 18:33N 39°08' E 002°28'10 9.7
2014-Jul-16 17:33N 39°07' E 002°40'10 9.5
2014-Jul-16 16:33N 39°05' E 002°53'9 9.0
2014-Jul-16 15:33N 39°06' E 003°04'9 9.0
2014-Jul-16 14:33N 39°08' E 003°16'9 9.2
2014-Jul-16 13:33N 39°09' E 003°27'  
Track history (hours):
 
Tides and Currents Weather Stations Pressure Air Temp Water Temp Dewpoint Dewpoint Depression Visibility Wind Speed Wind Dir Waves Ship Positions

Nestor

Last reported at 2014-Jul-25 18:32 UTC. Time now 2014-Jul-25 23:02 UTC.
Position N 41°35' E 010°01'.

Length 88 m; draft 3.3 m.

Type: Ship. MMSI: 305620000.

Date/timePositionNaut miles runAvg speedWind from/ knotsBaromVisibWave heightAir tempDewpointWater temp
2014-Jul-25 18:32N 41°35' E 010°01'1111.0
2014-Jul-25 17:33N 41°39' E 010°15'  
2014-Jul-20 00:31N 40°32' E 005°11'6 6.6
2014-Jul-19 23:33N 40°30' E 005°03'18 8.4
2014-Jul-19 21:21N 40°25' E 004°40'63 8.1
2014-Jul-19 13:29N 40°09' E 003°19'11 7.7
2014-Jul-19 12:05N 40°07' E 003°06'4 8.1
2014-Jul-19 11:33N 40°05' E 003°00'8 8.3
2014-Jul-19 10:33N 40°03' E 002°50'8 7.9
2014-Jul-19 09:33N 40°00' E 002°40'7 6.7
2014-Jul-19 08:33N 39°59' E 002°32'6 6.5
2014-Jul-19 07:33N 39°58' E 002°24'8 8.1
2014-Jul-19 06:33N 39°56' E 002°13'8 8.4
2014-Jul-19 05:34N 39°54' E 002°03'8 7.9
2014-Jul-19 04:33N 39°52' E 001°53'8 7.6
2014-Jul-19 03:32N 39°50' E 001°43'8 7.7
2014-Jul-19 02:33N 39°48' E 001°33'8 7.6
2014-Jul-19 01:33N 39°46' E 001°24'8 7.5
2014-Jul-19 00:30N 39°43' E 001°14'70 8.5
2014-Jul-18 16:13N 39°25' W 000°14'4 5.8
2014-Jul-18 15:31N 39°27' W 000°19'0 0.0
2014-Jul-18 14:31N 39°27' W 000°19'0 0.0
2014-Jul-18 13:31N 39°27' W 000°19'0 0.0
2014-Jul-18 12:31N 39°27' W 000°19'0 0.0
2014-Jul-18 11:31N 39°27' W 000°19'0 0.0
2014-Jul-18 09:31N 39°27' W 000°19'0 0.0
2014-Jul-18 08:25N 39°27' W 000°19'0 0.0
2014-Jul-18 07:31N 39°27' W 000°19'0 0.0
2014-Jul-18 06:31N 39°27' W 000°19'0 0.0
2014-Jul-18 05:28N 39°27' W 000°19'0 0.0
2014-Jul-18 04:31N 39°27' W 000°19'0 0.0
2014-Jul-18 03:31N 39°27' W 000°19'0 0.0
2014-Jul-18 02:31N 39°27' W 000°19'0 0.0
2014-Jul-18 01:31N 39°27' W 000°19'0 0.0
2014-Jul-18 00:31N 39°27' W 000°19'0 0.0
2014-Jul-17 23:31N 39°27' W 000°19'0 0.0
2014-Jul-17 22:31N 39°27' W 000°19'0 0.0
2014-Jul-17 21:31N 39°27' W 000°19'0 0.0
2014-Jul-17 20:31N 39°27' W 000°19'0 0.0
2014-Jul-17 19:31N 39°27' W 000°19'0 0.0
2014-Jul-17 18:31N 39°27' W 000°19'0 0.0
2014-Jul-17 17:31N 39°27' W 000°19'0 0.0
2014-Jul-17 16:31N 39°27' W 000°19'0 0.0
2014-Jul-17 15:31N 39°27' W 000°19'0 0.0
2014-Jul-17 14:31N 39°27' W 000°19'0 0.0
2014-Jul-17 13:31N 39°27' W 000°19'0 0.0
2014-Jul-17 12:31N 39°27' W 000°19'0 0.0
2014-Jul-17 11:31N 39°27' W 000°19'0 0.0
2014-Jul-17 10:28N 39°27' W 000°19'0 0.0
2014-Jul-17 09:33N 39°27' W 000°19'70 8.6
2014-Jul-17 01:27N 39°16' E 001°10'17 8.9
2014-Jul-16 23:33N 39°15' E 001°32'9 9.0
2014-Jul-16 22:33N 39°13' E 001°43'9 8.5
2014-Jul-16 21:33N 39°12' E 001°54'8 7.8
2014-Jul-16 20:33N 39°10' E 002°04'9 9.2
2014-Jul-16 19:33N 39°09' E 002°16'10 9.6
2014-Jul-16 18:33N 39°08' E 002°28'10 9.7
2014-Jul-16 17:33N 39°07' E 002°40'10 9.5
2014-Jul-16 16:33N 39°05' E 002°53'9 9.0
2014-Jul-16 15:33N 39°06' E 003°04'9 9.0
2014-Jul-16 14:33N 39°08' E 003°16'9 9.2
2014-Jul-16 13:33N 39°09' E 003°27'  

Dump ship's entire track history